Terminal Aerodrome Forecast
Issued by NWS Charleston, WV

Current Version | Previous Version | Graphics & Text | Print | Product List | Glossary Off
Versions: 1 2 3 4 5 6 7 8 9 10 11 12 13 14 15 16 17 18 19 20 21 22

000
FTUS41 KRLX 242326
TAFEKN
TAF
KEKN 242326Z 2500/2524 00000KT P6SM SCT060
     FM250400 00000KT P6SM BKN100
     FM250700 VRB03KT 5SM BR BKN070
     FM251000 VRB03KT 1SM BR BKN002 BKN050
     FM251200 00000KT P6SM BKN040
     FM251400 25006KT P6SM BKN040
     FM252200 24006KT P6SM SCT120=

USA.gov is the U.S. government's official web portal to all federal, state and local government web resources and services.